Time;durP1;ratioP1;P1;durP2;ratioP2;P2;SDS_P1;SDS_P2;PMS_P1;PMS_P2;Temp;Humidity;BMP_temperature;BMP_pressure;BME280_temperature;BME280_humidity;BME280_pressure;Samples;Min_cycle;Max_cycle;Signal;HPM_P1;HPM_P2
2022/06/25 00:01:14;;;;;;;;;;;;;;;16.59;100.00;97528.06;5072650;28;19931;-78
2022/06/25 00:03:42;;;;;;;;;;;;;;;16.07;100.00;97524.50;5072328;28;19928;-78
2022/06/25 00:06:10;;;;;;;;;;;;;;;16.37;100.00;97539.13;5072793;28;19946;-78
2022/06/25 00:08:39;;;;;;;;;;;;;;;16.24;100.00;97526.22;5055297;28;20387;-78
2022/06/25 00:11:06;;;;;;;;;;;;;;;16.77;100.00;97527.69;5072667;28;19963;-78
2022/06/25 00:13:34;;;;;;;;;;;;;;;16.63;100.00;97520.94;5055138;28;19925;-78
2022/06/25 00:16:02;;;;;;;;;;;;;;;16.67;100.00;97512.25;5054900;28;19931;-78
2022/06/25 00:18:29;;;;;;;;;;;;;;;16.52;100.00;97531.34;5072454;28;19924;-78
2022/06/25 00:20:57;;;;;;;;;;;;;;;16.71;100.00;97524.84;5054998;28;19925;-78
2022/06/25 00:23:24;;;;;;;;;;;;;;;16.92;100.00;97522.72;5072534;28;19931;-78
2022/06/25 00:25:51;;;;;;;;;;;;;;;16.59;100.00;97528.84;5054804;28;20315;-78
2022/06/25 00:28:19;;;;;;;;;;;;;;;16.40;100.00;97532.50;5072551;28;19956;-78
2022/06/25 00:30:46;;;;;;;;;;;;;;;16.34;100.00;97526.03;5052707;28;19924;-78
2022/06/25 00:33:13;;;;;;;;;;;;;;;16.26;100.00;97534.16;5054659;28;20333;-78
2022/06/25 00:35:41;;;;;;;;;;;;;;;16.31;100.00;97521.41;5054670;28;19925;-78
2022/06/25 00:38:08;;;;;;;;;;;;;;;16.22;100.00;97523.13;5054486;28;20387;-79
2022/06/25 00:40:36;;;;;;;;;;;;;;;16.12;100.00;97527.38;5038302;28;20332;-78
2022/06/25 00:43:04;;;;;;;;;;;;;;;16.27;100.00;97532.13;5038451;28;19925;-78
2022/06/25 00:45:31;;;;;;;;;;;;;;;16.19;100.00;97529.75;5037569;28;19931;-78
2022/06/25 00:47:59;;;;;;;;;;;;;;;16.24;100.00;97520.56;5054463;28;19924;-78
2022/06/25 00:50:26;;;;;;;;;;;;;;;16.18;100.00;97539.47;5053790;28;20443;-78
2022/06/25 00:52:55;;;;;;;;;;;;;;;16.01;100.00;97546.97;5037909;28;20298;-78
2022/06/25 00:55:25;;;;;;;;;;;;;;;16.02;100.00;97553.41;5037909;28;19993;-78
2022/06/25 00:57:54;;;;;;;;;;;;;;;15.87;100.00;97561.16;5021784;28;19924;-78
2022/06/25 01:00:22;;;;;;;;;;;;;;;15.82;100.00;97545.75;5054190;28;19924;-78
2022/06/25 01:02:50;;;;;;;;;;;;;;;15.41;100.00;97544.22;5054086;28;19924;-80
2022/06/25 01:05:17;;;;;;;;;;;;;;;15.34;100.00;97555.09;5054262;28;19931;-78
2022/06/25 01:07:46;;;;;;;;;;;;;;;15.41;100.00;97557.50;5037603;28;19928;-78
2022/06/25 01:10:15;;;;;;;;;;;;;;;15.11;100.00;97576.50;5054345;28;20398;-78
2022/06/25 01:12:43;;;;;;;;;;;;;;;15.33;100.00;97573.22;5054301;28;19993;-80
2022/06/25 01:15:16;;;;;;;;;;;;;;;15.21;100.00;97563.06;5054859;28;19956;-78
2022/06/25 01:17:48;;;;;;;;;;;;;;;15.03;100.00;97560.50;5057722;28;19924;-78
2022/06/25 01:20:17;;;;;;;;;;;;;;;15.32;100.00;97569.66;5057757;28;19936;-80
2022/06/25 01:22:44;;;;;;;;;;;;;;;15.35;100.00;97574.28;5057739;28;19963;-80
2022/06/25 01:25:13;;;;;;;;;;;;;;;15.19;100.00;97565.63;5024905;28;19924;-78
2022/06/25 01:27:41;;;;;;;;;;;;;;;15.04;100.00;97576.13;5057972;28;19948;-80
2022/06/25 01:30:09;;;;;;;;;;;;;;;14.74;100.00;97583.84;5057382;28;20358;-80
2022/06/25 01:32:37;;;;;;;;;;;;;;;14.91;100.00;97573.63;5040930;28;19931;-80
2022/06/25 01:35:05;;;;;;;;;;;;;;;14.77;100.00;97588.47;5057733;28;20005;-80
2022/06/25 01:37:34;;;;;;;;;;;;;;;14.67;100.00;97584.25;5057512;28;19931;-80
2022/06/25 01:40:02;;;;;;;;;;;;;;;14.62;100.00;97587.72;5057348;28;19924;-80
2022/06/25 01:45:15;;;;;;;;;;;;;;;14.99;100.00;97574.78;5074866;28;19931;-80
2022/06/25 01:47:43;;;;;;;;;;;;;;;14.94;100.00;97581.09;5057325;28;19978;-80
2022/06/25 01:50:11;;;;;;;;;;;;;;;15.01;100.00;97572.25;5057191;28;19924;-80
2022/06/25 01:52:42;;;;;;;;;;;;;;;15.37;100.00;97570.97;5041164;28;19978;-78
2022/06/25 01:55:10;;;;;;;;;;;;;;;15.27;100.00;97578.78;5074982;28;20371;-78
2022/06/25 01:57:40;;;;;;;;;;;;;;;15.25;100.00;97580.53;5056967;28;20391;-78
2022/06/25 02:00:10;;;;;;;;;;;;;;;15.06;100.00;97577.19;5056752;28;19932;-78
2022/06/25 02:02:45;;;;;;;;;;;;;;;14.87;100.00;97575.88;5040300;28;20015;-78
2022/06/25 02:05:13;;;;;;;;;;;;;;;14.78;100.00;97581.63;5057059;28;19924;-78
2022/06/25 02:07:40;;;;;;;;;;;;;;;14.82;100.00;97587.81;5056780;28;20303;-78
2022/06/25 02:10:08;;;;;;;;;;;;;;;14.74;100.00;97606.31;5057148;28;19978;-78
2022/06/25 02:12:35;;;;;;;;;;;;;;;14.88;100.00;97585.84;5056512;28;19925;-78
2022/06/25 02:15:04;;;;;;;;;;;;;;;14.69;100.00;97590.16;5056634;28;19932;-80
2022/06/25 02:17:31;;;;;;;;;;;;;;;14.74;100.00;97602.75;5056703;28;19924;-80
2022/06/25 02:19:59;;;;;;;;;;;;;;;14.61;100.00;97599.44;5056786;28;19979;-78
2022/06/25 02:22:29;;;;;;;;;;;;;;;14.96;100.00;97597.47;5056644;28;19974;-78
2022/06/25 02:24:57;;;;;;;;;;;;;;;14.71;100.00;97598.09;5056674;28;19981;-78
2022/06/25 02:27:25;;;;;;;;;;;;;;;15.22;100.00;97613.22;5040006;28;19925;-79
2022/06/25 02:29:53;;;;;;;;;;;;;;;15.20;100.00;97612.97;5073970;28;20079;-79
2022/06/25 02:32:21;;;;;;;;;;;;;;;14.41;100.00;97622.63;5056787;28;20387;-80
2022/06/25 02:34:50;;;;;;;;;;;;;;;14.82;100.00;97603.91;5039566;28;20345;-80
2022/06/25 02:37:17;;;;;;;;;;;;;;;15.16;100.00;97615.19;5056405;28;19964;-78
2022/06/25 02:39:44;;;;;;;;;;;;;;;15.17;100.00;97602.69;5056059;28;19924;-78
2022/06/25 02:42:12;;;;;;;;;;;;;;;15.24;100.00;97610.69;5039573;28;19925;-79
2022/06/25 02:44:40;;;;;;;;;;;;;;;14.96;100.00;97608.72;5039458;28;20375;-78
2022/06/25 02:47:08;;;;;;;;;;;;;;;15.01;100.00;97617.25;5074080;28;19980;-78
2022/06/25 02:49:53;;;;;;;;;;;;;;;15.21;100.00;97613.72;5056279;28;19956;-78
2022/06/25 02:52:20;;;;;;;;;;;;;;;15.18;100.00;97621.09;5039738;28;20280;-79
2022/06/25 02:54:48;;;;;;;;;;;;;;;14.64;100.00;97604.88;5055912;28;19924;-78
2022/06/25 03:00:04;;;;;;;;;;;;;;;14.57;100.00;97616.50;5055412;28;20035;-78
2022/06/25 03:02:34;;;;;;;;;;;;;;;14.50;100.00;97625.31;5055867;28;20031;-80
2022/06/25 03:05:02;;;;;;;;;;;;;;;14.46;100.00;97636.00;5055827;28;19932;-80
2022/06/25 03:07:30;;;;;;;;;;;;;;;14.54;100.00;97627.97;5039289;28;19924;-78
2022/06/25 03:09:58;;;;;;;;;;;;;;;14.64;100.00;97644.25;5055686;28;19924;-78
2022/06/25 03:12:25;;;;;;;;;;;;;;;14.39;100.00;97636.34;5055477;28;19924;-79
2022/06/25 03:15:03;;;;;;;;;;;;;;;14.55;100.00;97633.09;5055644;28;19952;-78
2022/06/25 03:17:31;;;;;;;;;;;;;;;14.36;100.00;97643.72;5055646;28;19987;-78
2022/06/25 03:20:24;;;;;;;;;;;;;;;14.72;100.00;97622.91;5073154;28;20503;-78
2022/06/25 03:22:54;;;;;;;;;;;;;;;14.80;100.00;97626.88;5055574;28;20399;-78
2022/06/25 03:25:23;;;;;;;;;;;;;;;14.49;100.00;97638.59;5038691;28;20272;-78
2022/06/25 03:27:50;;;;;;;;;;;;;;;14.40;100.00;97640.75;5055112;28;19928;-79
2022/06/25 03:30:18;;;;;;;;;;;;;;;14.12;100.00;97659.06;5073189;28;19970;-78
2022/06/25 03:32:48;;;;;;;;;;;;;;;13.85;100.00;97646.00;5055244;28;19924;-81
2022/06/25 03:35:38;;;;;;;;;;;;;;;13.82;100.00;97671.44;5067400;28;19924;-80
2022/06/25 03:38:12;;;;;;;;;;;;;;;13.71;100.00;97663.56;5054694;28;19924;-80
2022/06/25 03:40:41;;;;;;;;;;;;;;;13.63;100.00;97661.59;5038100;28;20011;-80
2022/06/25 03:43:11;;;;;;;;;;;;;;;13.94;100.00;97687.28;5038286;28;19924;-80
2022/06/25 03:45:41;;;;;;;;;;;;;;;13.85;100.00;97673.28;5055250;28;19936;-80
2022/06/25 03:48:09;;;;;;;;;;;;;;;13.75;100.00;97694.28;5055103;28;19932;-80
2022/06/25 03:51:09;;;;;;;;;;;;;;;13.58;100.00;97679.09;5041255;28;19974;-80
2022/06/25 03:53:37;;;;;;;;;;;;;;;13.68;100.00;97689.00;5038014;28;19925;-80
2022/06/25 03:56:05;;;;;;;;;;;;;;;13.97;100.00;97680.69;5054862;28;19987;-80
2022/06/25 03:58:38;;;;;;;;;;;;;;;13.72;100.00;97686.81;5054944;28;19928;-80
2022/06/25 04:01:06;;;;;;;;;;;;;;;13.97;100.00;97680.69;5021990;28;19925;-80
2022/06/25 04:03:34;;;;;;;;;;;;;;;13.68;100.00;97703.03;5021760;28;19928;-80
2022/06/25 04:06:08;;;;;;;;;;;;;;;13.65;100.00;97701.19;5038326;28;19925;-80
2022/06/25 04:08:41;;;;;;;;;;;;;;;13.81;100.00;97700.78;5054833;28;20259;-80
2022/06/25 04:11:12;;;;;;;;;;;;;;;13.86;100.00;97691.69;5038839;28;20012;-80
2022/06/25 04:13:59;;;;;;;;;;;;;;;13.97;100.00;97703.94;5054980;28;19956;-80
2022/06/25 04:16:27;;;;;;;;;;;;;;;13.89;100.00;97707.56;5038501;28;19959;-78
2022/06/25 04:18:59;;;;;;;;;;;;;;;13.81;100.00;97707.16;5054760;28;19979;-78
2022/06/25 04:21:32;;;;;;;;;;;;;;;13.81;100.00;97709.22;5054585;28;19924;-80
2022/06/25 04:24:00;;;;;;;;;;;;;;;13.86;100.00;97697.28;5054809;28;19925;-80
2022/06/25 04:26:29;;;;;;;;;;;;;;;13.92;100.00;97706.63;5037810;28;19971;-80
2022/06/25 04:29:03;;;;;;;;;;;;;;;13.83;100.00;97712.28;5054673;28;20413;-80
2022/06/25 04:31:34;;;;;;;;;;;;;;;13.98;100.00;97707.53;5072621;28;19925;-78
2022/06/25 04:34:03;;;;;;;;;;;;;;;13.92;100.00;97720.66;5054731;28;19931;-80
2022/06/25 04:36:32;;;;;;;;;;;;;;;14.02;100.00;97716.56;5054684;28;20276;-78
2022/06/25 04:39:21;;;;;;;;;;;;;;;14.29;100.00;97722.00;5054515;28;19925;-78
2022/06/25 04:41:49;;;;;;;;;;;;;;;13.86;100.00;97722.56;5038372;28;19929;-78
2022/06/25 04:44:22;;;;;;;;;;;;;;;14.01;100.00;97727.00;5021306;28;19948;-81
2022/06/25 04:46:50;;;;;;;;;;;;;;;14.24;100.00;97728.25;5054449;28;19974;-80
2022/06/25 04:49:22;;;;;;;;;;;;;;;14.02;100.00;97737.00;5054581;28;19925;-80
2022/06/25 04:51:50;;;;;;;;;;;;;;;14.00;100.00;97741.50;5057918;28;20395;-80
2022/06/25 04:54:17;;;;;;;;;;;;;;;13.98;100.00;97744.03;5058053;28;20299;-80
2022/06/25 04:56:51;;;;;;;;;;;;;;;14.07;100.00;97741.19;5058365;28;20418;-80
2022/06/25 04:59:20;;;;;;;;;;;;;;;13.97;100.00;97751.69;5058239;28;20302;-80
2022/06/25 05:01:48;;;;;;;;;;;;;;;13.96;100.00;97752.16;5075730;28;19924;-80
2022/06/25 05:04:16;;;;;;;;;;;;;;;14.09;100.00;97749.88;5058047;28;19939;-79
2022/06/25 05:06:44;;;;;;;;;;;;;;;14.28;100.00;97759.78;5025060;28;19925;-78
2022/06/25 05:09:14;;;;;;;;;;;;;;;13.91;100.00;97750.78;5024773;28;19925;-78
2022/06/25 05:11:43;;;;;;;;;;;;;;;14.24;100.00;97751.53;5041191;28;19925;-78
2022/06/25 05:14:10;;;;;;;;;;;;;;;14.03;100.00;97765.84;5041357;28;19956;-80
2022/06/25 05:16:40;;;;;;;;;;;;;;;14.23;100.00;97771.63;5041061;28;20341;-80
2022/06/25 05:19:07;;;;;;;;;;;;;;;14.17;100.00;97773.56;5041381;28;19924;-80
2022/06/25 05:21:36;;;;;;;;;;;;;;;14.15;100.00;97776.84;5057723;28;19932;-80
2022/06/25 05:24:05;;;;;;;;;;;;;;;14.31;100.00;97772.88;5040557;28;19929;-80
2022/06/25 05:26:33;;;;;;;;;;;;;;;14.10;100.00;97774.69;5057894;28;19924;-78
2022/06/25 05:29:01;;;;;;;;;;;;;;;14.62;100.00;97786.50;5057572;28;20007;-80
2022/06/25 05:31:29;;;;;;;;;;;;;;;14.51;100.00;97775.81;5040636;28;20022;-80
2022/06/25 05:33:56;;;;;;;;;;;;;;;14.41;100.00;97783.56;5040422;28;19924;-80
2022/06/25 05:36:24;;;;;;;;;;;;;;;14.50;100.00;97779.91;5057514;28;20395;-81
2022/06/25 05:38:51;;;;;;;;;;;;;;;14.13;100.00;97801.81;5057107;28;20346;-78
2022/06/25 05:41:19;;;;;;;;;;;;;;;13.98;100.00;97791.78;5056819;28;20371;-78
2022/06/25 05:43:46;;;;;;;;;;;;;;;14.39;100.00;97802.91;5056598;28;20448;-80
2022/06/25 05:46:14;;;;;;;;;;;;;;;14.43;100.00;97800.69;5040657;28;20299;-80
2022/06/25 05:48:42;;;;;;;;;;;;;;;14.77;100.00;97788.09;5075072;28;19930;-80
2022/06/25 05:51:09;;;;;;;;;;;;;;;14.68;100.00;97802.22;5074586;28;20375;-80
2022/06/25 05:53:39;;;;;;;;;;;;;;;14.84;100.00;97793.38;5075030;28;19925;-80
2022/06/25 05:56:06;;;;;;;;;;;;;;;14.79;100.00;97802.47;5074988;28;19926;-80
2022/06/25 05:58:33;;;;;;;;;;;;;;;14.76;100.00;97800.63;5057063;28;20406;-80
2022/06/25 06:01:01;;;;;;;;;;;;;;;15.32;100.00;97800.38;5074460;28;19924;-80
2022/06/25 06:03:29;;;;;;;;;;;;;;;15.93;100.00;97795.78;5074673;28;19924;-79
2022/06/25 06:05:58;;;;;;;;;;;;;;;15.55;100.00;97807.97;5074553;28;21152;-78
2022/06/25 06:08:27;;;;;;;;;;;;;;;15.77;100.00;97813.97;5074635;28;20394;-78
2022/06/25 06:10:54;;;;;;;;;;;;;;;15.76;100.00;97806.78;5074912;28;19960;-79
2022/06/25 06:13:22;;;;;;;;;;;;;;;15.76;100.00;97815.25;5075083;28;19970;-78
2022/06/25 06:15:50;;;;;;;;;;;;;;;15.60;100.00;97815.72;5056716;28;19924;-78
2022/06/25 06:18:17;;;;;;;;;;;;;;;15.47;100.00;97806.81;5056470;28;20274;-78
2022/06/25 06:20:45;;;;;;;;;;;;;;;15.54;100.00;97806.41;5074254;28;19932;-78
2022/06/25 06:23:12;;;;;;;;;;;;;;;15.79;100.00;97816.28;5074448;28;19931;-78
2022/06/25 06:25:40;;;;;;;;;;;;;;;15.74;100.00;97814.94;5074382;28;19924;-78
2022/06/25 06:28:07;;;;;;;;;;;;;;;15.01;100.00;97822.56;5056358;28;19929;-78
2022/06/25 06:30:34;;;;;;;;;;;;;;;15.49;100.00;97823.22;5056215;28;19931;-78
2022/06/25 06:33:03;;;;;;;;;;;;;;;15.56;100.00;97820.78;5056202;28;20383;-78
2022/06/25 06:35:31;;;;;;;;;;;;;;;15.57;100.00;97825.16;5056233;28;19978;-78
2022/06/25 06:37:59;;;;;;;;;;;;;;;15.73;100.00;97821.84;5056354;28;19924;-78
2022/06/25 06:40:27;;;;;;;;;;;;;;;15.79;100.00;97833.19;5073914;28;19924;-79
2022/06/25 06:42:56;;;;;;;;;;;;;;;15.78;100.00;97831.66;5074103;28;19973;-78
2022/06/25 06:45:23;;;;;;;;;;;;;;;15.62;100.00;97837.75;5056585;28;20354;-78
2022/06/25 06:47:51;;;;;;;;;;;;;;;15.91;100.00;97838.50;5073916;28;20019;-78
2022/06/25 06:50:18;;;;;;;;;;;;;;;16.32;100.00;97830.94;5056047;28;19924;-79
2022/06/25 06:52:46;;;;;;;;;;;;;;;16.43;100.00;97824.66;5073645;28;20295;-78
2022/06/25 06:55:13;;;;;;;;;;;;;;;16.45;100.00;97833.44;5073870;28;19960;-78
2022/06/25 06:57:41;;;;;;;;;;;;;;;16.86;100.00;97837.78;5055930;28;20406;-79
2022/06/25 07:00:12;;;;;;;;;;;;;;;18.31;100.00;97833.78;5073625;28;19925;-79
2022/06/25 07:02:39;;;;;;;;;;;;;;;18.51;100.00;97828.00;5055768;28;20383;-79
2022/06/25 07:05:06;;;;;;;;;;;;;;;18.75;100.00;97828.38;5055069;28;19928;-79
2022/06/25 07:07:34;;;;;;;;;;;;;;;18.85;100.00;97821.25;5073548;28;20307;-79
2022/06/25 07:10:03;;;;;;;;;;;;;;;18.46;100.00;97830.81;5073379;28;19970;-79
2022/06/25 07:12:31;;;;;;;;;;;;;;;18.20;100.00;97841.41;5054815;28;20013;-79
2022/06/25 07:14:58;;;;;;;;;;;;;;;18.35;100.00;97851.28;5038838;28;19928;-79
2022/06/25 07:17:26;;;;;;;;;;;;;;;18.65;100.00;97846.09;5039274;28;19929;-79
2022/06/25 07:19:53;;;;;;;;;;;;;;;18.42;100.00;97845.19;5055681;28;19989;-79
2022/06/25 07:22:21;;;;;;;;;;;;;;;19.79;100.00;97840.50;5038756;28;20039;-79
2022/06/25 07:24:49;;;;;;;;;;;;;;;19.03;100.00;97837.78;5073136;28;19932;-79
2022/06/25 07:27:17;;;;;;;;;;;;;;;16.92;100.00;97858.41;5073357;28;20032;-78
2022/06/25 07:29:44;;;;;;;;;;;;;;;17.19;100.00;97849.50;5054657;28;20021;-76
2022/06/25 07:32:12;;;;;;;;;;;;;;;17.69;100.00;97859.25;5073236;28;19931;-78
2022/06/25 07:34:39;;;;;;;;;;;;;;;17.77;100.00;97857.53;5055049;28;20372;-78
2022/06/25 07:37:08;;;;;;;;;;;;;;;17.97;100.00;97854.59;5055117;28;19924;-78
2022/06/25 07:39:35;;;;;;;;;;;;;;;17.62;100.00;97863.31;5072962;28;19932;-81
2022/06/25 07:42:03;;;;;;;;;;;;;;;18.07;100.00;97869.34;5073034;28;19925;-77
2022/06/25 07:44:30;;;;;;;;;;;;;;;17.42;100.00;97859.72;5054519;28;19972;-77
2022/06/25 07:46:58;;;;;;;;;;;;;;;16.67;100.00;97873.19;5073145;28;19931;-77
2022/06/25 07:49:25;;;;;;;;;;;;;;;17.19;100.00;97866.41;5072698;28;19956;-76
2022/06/25 07:52:00;;;;;;;;;;;;;;;17.51;100.00;97868.06;5051595;28;20012;-77
2022/06/25 07:54:33;;;;;;;;;;;;;;;17.56;100.00;97868.13;5052992;28;20016;-76
2022/06/25 07:57:01;;;;;;;;;;;;;;;17.89;100.00;97867.63;5053059;28;19931;-77
2022/06/25 07:59:28;;;;;;;;;;;;;;;19.03;100.00;97871.75;5051435;28;19931;-77
2022/06/25 08:01:56;;;;;;;;;;;;;;;19.72;100.00;97870.13;5051221;28;19976;-77
2022/06/25 08:04:23;;;;;;;;;;;;;;;19.82;100.00;97848.00;5051764;28;19925;-77
2022/06/25 08:06:51;;;;;;;;;;;;;;;20.50;100.00;97862.41;5034831;28;20330;-77
2022/06/25 08:09:18;;;;;;;;;;;;;;;18.95;100.00;97873.50;5051595;28;19931;-77
2022/06/25 08:11:46;;;;;;;;;;;;;;;18.90;100.00;97868.56;5051347;28;20281;-76
2022/06/25 08:14:13;;;;;;;;;;;;;;;20.33;100.00;97864.50;5051317;28;19925;-77
2022/06/25 08:16:40;;;;;;;;;;;;;;;19.96;100.00;97858.31;5051354;28;19924;-77
2022/06/25 08:19:08;;;;;;;;;;;;;;;19.57;100.00;97878.88;5051398;28;19925;-77
2022/06/25 08:21:35;;;;;;;;;;;;;;;18.42;100.00;97878.38;5052636;28;19932;-77
2022/06/25 08:24:02;;;;;;;;;;;;;;;19.20;100.00;97869.75;5052162;28;19961;-77
2022/06/25 08:26:30;;;;;;;;;;;;;;;20.50;100.00;97868.88;5038615;28;20362;-77
2022/06/25 08:28:58;;;;;;;;;;;;;;;21.55;100.00;97847.81;5055328;28;19925;-78
2022/06/25 08:31:27;;;;;;;;;;;;;;;21.16;100.00;97859.38;5056554;28;19929;-77
2022/06/25 08:33:54;;;;;;;;;;;;;;;18.82;100.00;97872.41;5055305;28;19924;-77
2022/06/25 08:36:22;;;;;;;;;;;;;;;19.98;100.00;97878.41;5056653;28;19979;-76
2022/06/25 08:38:49;;;;;;;;;;;;;;;20.71;100.00;97869.31;5055343;28;19925;-77
2022/06/25 08:41:17;;;;;;;;;;;;;;;21.01;100.00;97870.28;5038569;28;19933;-77
2022/06/25 08:43:45;;;;;;;;;;;;;;;18.61;100.00;97880.28;5056379;28;20447;-77
2022/06/25 08:46:14;;;;;;;;;;;;;;;20.09;100.00;97881.22;5056022;28;19929;-77
2022/06/25 08:48:42;;;;;;;;;;;;;;;19.42;100.00;97881.16;5056313;28;20013;-80
2022/06/25 08:51:10;;;;;;;;;;;;;;;18.99;100.00;97893.06;5057512;28;19925;-81
2022/06/25 08:53:38;;;;;;;;;;;;;;;18.79;100.00;97901.72;5058586;28;19924;-76
2022/06/25 08:56:05;;;;;;;;;;;;;;;18.81;100.00;97897.09;5058848;28;19958;-77
2022/06/25 08:58:33;;;;;;;;;;;;;;;20.03;100.00;97883.28;5058236;28;19924;-77
2022/06/25 09:01:00;;;;;;;;;;;;;;;20.07;100.00;97895.94;5075635;28;19931;-77
2022/06/25 09:03:27;;;;;;;;;;;;;;;20.36;100.00;97888.97;5058119;28;19925;-77
2022/06/25 09:05:55;;;;;;;;;;;;;;;21.35;100.00;97888.72;5076070;28;19925;-77
2022/06/25 09:08:22;;;;;;;;;;;;;;;21.37;100.00;97880.47;5075962;28;20296;-77
2022/06/25 09:10:53;;;;;;;;;;;;;;;18.98;100.00;97875.31;5075833;28;20326;-77
2022/06/25 09:13:22;;;;;;;;;;;;;;;18.77;100.00;97899.41;5057796;28;19924;-77
2022/06/25 09:15:49;;;;;;;;;;;;;;;18.36;100.00;97911.47;5057805;28;19971;-77
2022/06/25 09:18:18;;;;;;;;;;;;;;;19.42;100.00;97898.16;5075717;28;19929;-77
2022/06/25 09:21:01;;;;;;;;;;;;;;;19.30;100.00;97907.91;5024730;28;20395;-77
2022/06/25 09:23:29;;;;;;;;;;;;;;;19.54;100.00;97898.94;5057869;28;20280;-77
2022/06/25 09:26:07;;;;;;;;;;;;;;;20.13;100.00;97895.97;5058247;28;19931;-77
2022/06/25 09:28:39;;;;;;;;;;;;;;;20.03;100.00;97901.09;5057962;28;19924;-77
2022/06/25 09:31:07;;;;;;;;;;;;;;;19.46;100.00;97901.50;5057715;28;19975;-77
2022/06/25 09:33:35;;;;;;;;;;;;;;;19.19;100.00;97910.66;5075181;28;20307;-77
2022/06/25 09:36:03;;;;;;;;;;;;;;;19.14;100.00;97905.75;5056833;28;19947;-77
2022/06/25 09:38:31;;;;;;;;;;;;;;;19.34;100.00;97902.00;5075123;28;19963;-76
2022/06/25 09:40:59;;;;;;;;;;;;;;;19.95;100.00;97899.28;5057451;28;19975;-77
2022/06/25 09:43:28;;;;;;;;;;;;;;;19.01;100.00;97902.59;5039922;28;20091;-77
2022/06/25 09:45:56;;;;;;;;;;;;;;;19.14;100.00;97910.63;5074997;28;19950;-77
2022/06/25 09:48:24;;;;;;;;;;;;;;;19.49;100.00;97911.81;5057234;28;19951;-77
2022/06/25 09:51:11;;;;;;;;;;;;;;;19.67;100.00;97907.75;5074843;28;19925;-78
2022/06/25 09:53:51;;;;;;;;;;;;;;;20.12;100.00;97903.66;5074869;28;19931;-77
2022/06/25 09:56:20;;;;;;;;;;;;;;;20.44;100.00;97899.31;5074797;28;20271;-78
2022/06/25 09:58:48;;;;;;;;;;;;;;;20.58;100.00;97888.97;5040320;28;20290;-78
2022/06/25 10:01:17;;;;;;;;;;;;;;;21.10;100.00;97889.84;5056896;28;19932;-78
2022/06/25 10:03:45;;;;;;;;;;;;;;;21.60;100.00;97876.19;5074597;28;19934;-78
2022/06/25 10:06:14;;;;;;;;;;;;;;;20.70;100.00;97884.81;5074706;28;19925;-78
2022/06/25 10:08:52;;;;;;;;;;;;;;;20.16;100.00;97872.25;5074759;28;19928;-78
2022/06/25 10:11:21;;;;;;;;;;;;;;;20.13;100.00;97893.91;5074616;28;19925;-78
2022/06/25 10:13:49;;;;;;;;;;;;;;;19.82;100.00;97884.84;5056549;28;19928;-78
2022/06/25 10:16:16;;;;;;;;;;;;;;;18.81;100.00;97891.44;5039981;28;19928;-78
2022/06/25 10:18:44;;;;;;;;;;;;;;;19.46;100.00;97892.25;5074503;28;19924;-78
2022/06/25 10:21:12;;;;;;;;;;;;;;;19.32;100.00;97911.00;5056238;28;19972;-78
2022/06/25 10:23:40;;;;;;;;;;;;;;;18.85;100.00;97914.63;5074346;28;19924;-78
2022/06/25 10:26:09;;;;;;;;;;;;;;;19.76;100.00;97892.56;5040158;28;19931;-78
2022/06/25 10:28:36;;;;;;;;;;;;;;;19.38;100.00;97885.53;5039760;28;20015;-78
2022/06/25 10:31:04;;;;;;;;;;;;;;;19.95;100.00;97894.38;5056464;28;19924;-78
2022/06/25 10:33:36;;;;;;;;;;;;;;;20.03;100.00;97883.28;5055575;28;19925;-78
2022/06/25 10:36:04;;;;;;;;;;;;;;;20.89;100.00;97874.41;5055934;28;19932;-78
2022/06/25 10:38:32;;;;;;;;;;;;;;;19.82;100.00;97862.16;5055903;28;20045;-78
2022/06/25 10:42:58;;;;;;;;;;;;;;;20.81;100.00;97890.47;5055719;28;19938;-78
2022/06/25 10:43:54;;;;;;;;;;;;;;;20.86;100.00;97881.13;5074084;28;20149;-78
2022/06/25 10:46:30;;;;;;;;;;;;;;;21.20;100.00;97868.41;5074048;28;20011;-78
2022/06/25 10:49:12;;;;;;;;;;;;;;;21.24;100.00;97888.78;5074342;28;19932;-78
2022/06/25 10:51:44;;;;;;;;;;;;;;;20.59;100.00;97887.66;5055770;28;19931;-78
2022/06/25 10:54:26;;;;;;;;;;;;;;;20.47;100.00;97884.09;5056222;28;19972;-78
2022/06/25 10:56:55;;;;;;;;;;;;;;;20.54;100.00;97894.13;5055929;28;19974;-78
2022/06/25 10:59:31;;;;;;;;;;;;;;;20.70;100.00;97885.59;5055926;28;19925;-78
2022/06/25 11:01:59;;;;;;;;;;;;;;;20.68;100.00;97893.06;5055717;28;19925;-78
2022/06/25 11:04:28;;;;;;;;;;;;;;;20.50;100.00;97893.63;5073461;28;20023;-78
2022/06/25 11:07:07;;;;;;;;;;;;;;;20.74;100.00;97890.97;5056044;28;20218;-78
2022/06/25 11:09:35;;;;;;;;;;;;;;;19.59;100.00;97907.47;5055705;28;19924;-78
2022/06/25 11:12:07;;;;;;;;;;;;;;;20.36;100.00;97888.97;5022584;28;20284;-78
2022/06/25 11:14:34;;;;;;;;;;;;;;;20.46;100.00;97898.78;5073074;28;19976;-78
2022/06/25 11:17:09;;;;;;;;;;;;;;;20.91;100.00;97900.22;5039145;28;20422;-78
2022/06/25 11:19:40;;;;;;;;;;;;;;;20.43;100.00;97902.66;5073274;28;19990;-80
2022/06/25 11:22:08;;;;;;;;;;;;;;;20.57;100.00;97888.19;5073020;28;19997;-80
2022/06/25 11:24:35;;;;;;;;;;;;;;;21.45;100.00;97884.28;5022319;28;20397;-75
2022/06/25 11:29:50;;;;;;;;;;;;;;;21.18;100.00;97890.88;5066482;28;19970;-82
2022/06/25 11:32:23;;;;;;;;;;;;;;;20.60;100.00;97880.72;5038929;28;20340;-82
2022/06/25 11:34:55;;;;;;;;;;;;;;;20.78;100.00;97880.16;5022209;28;20417;-81
2022/06/25 11:37:24;;;;;;;;;;;;;;;20.70;100.00;97877.06;5055357;28;19954;-81
2022/06/25 11:39:52;;;;;;;;;;;;;;;21.31;100.00;97891.09;5038705;28;20489;-81
2022/06/25 11:42:20;;;;;;;;;;;;;;;21.36;100.00;97884.59;5039112;28;19924;-82
2022/06/25 11:44:47;;;;;;;;;;;;;;;20.77;100.00;97875.75;5002882;28;19929;-81
2022/06/25 11:47:18;;;;;;;;;;;;;;;20.96;100.00;97857.66;5002256;28;19925;-81
2022/06/25 11:49:46;;;;;;;;;;;;;;;21.37;100.00;97881.22;5017992;28;19975;-81
2022/06/25 11:52:14;;;;;;;;;;;;;;;21.23;100.00;97885.16;5038293;28;20334;-81
2022/06/25 11:54:41;;;;;;;;;;;;;;;20.53;100.00;97886.91;5055462;28;20371;-81
2022/06/25 11:57:11;;;;;;;;;;;;;;;21.04;100.00;97869.22;5039213;28;19955;-81
2022/06/25 11:59:39;;;;;;;;;;;;;;;20.57;100.00;97887.44;5053956;28;19924;-81
2022/06/25 12:02:07;;;;;;;;;;;;;;;21.18;100.00;97890.88;5021952;28;19974;-81
2022/06/25 12:04:53;;;;;;;;;;;;;;;20.73;100.00;97884.56;5072455;28;19935;-82
2022/06/25 12:07:25;;;;;;;;;;;;;;;20.32;100.00;97903.44;5054563;28;20328;-81
2022/06/25 12:10:05;;;;;;;;;;;;;;;20.46;100.00;97933.59;5054494;28;20350;-82
2022/06/25 12:12:34;;;;;;;;;;;;;;;20.06;100.00;97910.63;5053866;28;19924;-81
2022/06/25 12:15:02;;;;;;;;;;;;;;;20.02;100.00;97932.78;5072357;28;19928;-81
2022/06/25 12:17:34;;;;;;;;;;;;;;;19.13;100.00;97943.81;5038552;28;19924;-81
2022/06/25 12:20:07;;;;;;;;;;;;;;;19.75;100.00;97919.34;5054427;28;19924;-81
2022/06/25 12:22:41;;;;;;;;;;;;;;;19.77;100.00;97934.53;5072427;28;19924;-81
2022/06/25 12:25:10;;;;;;;;;;;;;;;20.04;100.00;97935.91;5038112;28;19948;-81
2022/06/25 12:27:47;;;;;;;;;;;;;;;20.22;100.00;97930.50;5022188;28;19929;-81
2022/06/25 12:30:22;;;;;;;;;;;;;;;19.51;100.00;97929.09;5035813;28;20299;-81
2022/06/25 12:32:51;;;;;;;;;;;;;;;20.27;100.00;97932.56;5072364;28;19924;-81
2022/06/25 12:35:22;;;;;;;;;;;;;;;20.58;100.00;97934.38;5038338;28;19974;-81
2022/06/25 12:38:04;;;;;;;;;;;;;;;20.35;100.00;97907.31;5072167;28;19924;-81
2022/06/25 12:40:37;;;;;;;;;;;;;;;20.71;100.00;97920.41;5054565;28;20346;-81
2022/06/25 12:43:09;;;;;;;;;;;;;;;20.62;100.00;97901.59;5072409;28;19924;-81
2022/06/25 12:45:37;;;;;;;;;;;;;;;20.68;100.00;97912.94;5053901;28;19952;-81
2022/06/25 12:48:05;;;;;;;;;;;;;;;20.34;100.00;97863.97;5054377;28;19931;-81
2022/06/25 12:50:34;;;;;;;;;;;;;;;19.61;100.00;97873.72;5072506;28;19928;-81
2022/06/25 12:53:05;;;;;;;;;;;;;;;19.81;100.00;97883.28;5037486;28;19975;-81
2022/06/25 12:55:32;;;;;;;;;;;;;;;19.86;100.00;97880.47;5054527;28;19925;-81